createdAt,value
2018-03-04T01:42:36.180Z,-4.07
2018-03-04T01:42:36.678Z,-4.14
2018-03-04T01:42:37.280Z,-4.11
2018-03-04T01:42:37.880Z,-4.02
2018-03-04T01:42:38.508Z,-4.04
2018-03-04T01:42:39.076Z,-4.12
2018-03-04T01:42:39.680Z,-4.15
2018-03-04T01:43:34.145Z,-4.05
2018-03-04T01:43:34.739Z,-4.14
2018-03-04T01:43:35.339Z,-4.09
2018-03-04T01:43:35.939Z,-4.02
2018-03-04T01:43:36.538Z,-4.05
2018-03-04T01:43:37.138Z,-4.02
2018-03-04T01:43:37.740Z,-4.12
2018-03-04T01:44:51.794Z,-4.02
2018-03-04T01:44:52.361Z,-4.04
2018-03-04T01:44:52.962Z,-4.01
2018-03-04T01:44:53.560Z,-4.11
2018-03-04T01:44:54.159Z,-4.02
2018-03-04T01:44:54.759Z,-4.01
2018-03-04T01:44:55.360Z,-4.02
2018-03-04T01:45:49.314Z,-4.01
2018-03-04T01:45:49.910Z,-4.02
2018-03-04T01:45:50.512Z,-4.04
2018-03-04T01:45:51.109Z,-4.08
2018-03-04T01:45:51.709Z,-4.04
2018-03-04T01:45:52.370Z,-4.02
2018-03-04T01:45:52.909Z,-4.05
2018-03-04T01:47:06.934Z,-3.98
2018-03-04T01:47:07.529Z,-3.98
2018-03-04T01:47:08.129Z,-3.98
2018-03-04T01:47:08.729Z,-4.02
2018-03-04T01:47:09.329Z,-3.99
2018-03-04T01:47:09.928Z,-4.04
2018-03-04T01:47:10.529Z,-4.01
2018-03-04T01:48:04.483Z,-4.01
2018-03-04T01:48:05.081Z,-4.01
2018-03-04T01:48:05.683Z,-3.98
2018-03-04T01:48:06.279Z,-3.99
2018-03-04T01:48:06.880Z,-3.96
2018-03-04T01:48:07.479Z,-3.99
2018-03-04T01:48:08.079Z,-4.01
2018-03-04T01:49:22.106Z,-4.01
2018-03-04T01:49:22.700Z,-3.94
2018-03-04T01:49:23.299Z,-3.94
2018-03-04T01:49:23.900Z,-4.02
2018-03-04T01:49:24.498Z,-4.04
2018-03-04T01:49:25.100Z,-4.01
2018-03-04T01:49:25.699Z,-4.01
2018-03-04T01:50:19.780Z,-3.98
2018-03-04T01:50:20.356Z,-3.98
2018-03-04T01:50:20.951Z,-3.99
2018-03-04T01:50:21.553Z,-3.90
2018-03-04T01:50:22.151Z,-3.98
2018-03-04T01:50:22.750Z,-3.98
2018-03-04T01:50:23.349Z,-4.01
2018-03-04T01:51:17.409Z,-4.02
2018-03-04T01:51:18.006Z,-3.91
2018-03-04T01:51:18.604Z,-4.02
2018-03-04T01:51:19.205Z,-3.91
2018-03-04T01:51:19.803Z,-3.96
2018-03-04T01:51:20.407Z,-3.98
2018-03-04T01:51:21.003Z,-3.96
2018-03-04T01:52:15.059Z,-3.93
2018-03-04T01:52:15.656Z,-4.01
2018-03-04T01:52:16.257Z,-3.99
2018-03-04T01:52:16.856Z,-3.96
2018-03-04T01:52:17.454Z,-3.96
2018-03-04T01:52:18.055Z,-3.96
2018-03-04T01:52:18.656Z,-3.94
2018-03-04T01:53:12.722Z,-4.01
2018-03-04T01:53:13.308Z,-4.05
2018-03-04T01:53:13.909Z,-4.01
2018-03-04T01:53:14.508Z,-4.02
2018-03-04T01:53:15.108Z,-3.90
2018-03-04T01:53:15.709Z,-4.07
2018-03-04T01:53:16.307Z,-4.01
2018-03-04T01:54:10.364Z,-3.94
2018-03-04T01:54:10.959Z,-3.93
2018-03-04T01:54:11.560Z,-4.01
2018-03-04T01:54:12.159Z,-3.93
2018-03-04T01:54:12.760Z,-3.98
2018-03-04T01:54:13.358Z,-4.04
2018-03-04T01:54:13.959Z,-4.02
2018-03-04T01:55:08.056Z,-3.94
2018-03-04T01:55:08.618Z,-3.98
2018-03-04T01:55:09.211Z,-4.02
2018-03-04T01:55:09.812Z,-4.01
2018-03-04T01:55:10.412Z,-4.04
2018-03-04T01:55:11.011Z,-4.01
2018-03-04T01:55:11.610Z,-3.99
2018-03-04T01:56:05.667Z,-3.98
2018-03-04T01:56:06.263Z,-3.93
2018-03-04T01:56:06.864Z,-3.90
2018-03-04T01:56:07.469Z,-3.91
2018-03-04T01:56:08.062Z,-3.99
2018-03-04T01:56:08.662Z,-4.01
2018-03-04T01:56:09.263Z,-3.96
2018-03-04T01:57:03.317Z,-3.96
2018-03-04T01:57:03.915Z,-3.87
2018-03-04T01:57:04.514Z,-3.90
2018-03-04T01:57:05.114Z,-3.90
2018-03-04T01:57:05.714Z,-3.91
2018-03-04T01:57:06.314Z,-3.90
2018-03-04T01:57:06.913Z,-3.91
2018-03-04T01:58:00.970Z,-3.91
2018-03-04T01:58:01.567Z,-3.94
2018-03-04T01:58:02.166Z,-3.89
2018-03-04T01:58:02.766Z,-3.94
2018-03-04T01:58:03.366Z,-3.91
2018-03-04T01:58:03.965Z,-3.94
2018-03-04T01:58:04.573Z,-3.91
2018-03-04T01:58:58.622Z,-3.86
2018-03-04T01:58:59.218Z,-3.86
2018-03-04T01:58:59.819Z,-3.87
2018-03-04T01:59:00.418Z,-3.86
2018-03-04T01:59:01.018Z,-3.94
2018-03-04T01:59:01.618Z,-3.86
2018-03-04T01:59:02.217Z,-3.86
2018-03-04T01:59:56.272Z,-3.83
2018-03-04T01:59:56.869Z,-3.96
2018-03-04T01:59:57.474Z,-3.78
2018-03-04T01:59:58.069Z,-3.84
2018-03-04T01:59:58.670Z,-3.78
2018-03-04T01:59:59.268Z,-3.80
2018-03-04T01:59:59.869Z,-3.83
2018-03-04T02:00:53.948Z,-3.75
2018-03-04T02:00:54.524Z,-3.91
2018-03-04T02:00:55.121Z,-3.83
2018-03-04T02:00:55.720Z,-3.83
2018-03-04T02:00:56.321Z,-3.83
2018-03-04T02:00:56.921Z,-3.91
2018-03-04T02:00:57.523Z,-3.78
2018-03-04T02:01:51.577Z,-3.86
2018-03-04T02:01:52.175Z,-3.83
2018-03-04T02:01:52.773Z,-3.93
2018-03-04T02:01:53.373Z,-3.89
2018-03-04T02:01:53.973Z,-3.90
2018-03-04T02:01:54.572Z,-3.89
2018-03-04T02:01:55.173Z,-3.91
2018-03-04T02:02:48.718Z,-3.84
2018-03-04T02:02:49.314Z,-3.81
2018-03-04T02:02:49.914Z,-3.84
2018-03-04T02:02:50.515Z,-3.75
2018-03-04T02:02:51.113Z,-3.81
2018-03-04T02:02:51.714Z,-3.78
2018-03-04T02:02:52.312Z,-3.78
2018-03-04T02:02:52.918Z,-3.81
2018-03-04T02:03:46.471Z,-3.84
2018-03-04T02:03:47.068Z,-3.78
2018-03-04T02:03:47.669Z,-3.81
2018-03-04T02:03:48.271Z,-3.75
2018-03-04T02:03:48.867Z,-3.81
2018-03-04T02:03:49.469Z,-3.76
2018-03-04T02:03:50.067Z,-3.83
2018-03-04T02:03:50.668Z,-3.76
2018-03-04T02:04:44.636Z,-3.80
2018-03-04T02:04:45.232Z,-3.80
2018-03-04T02:04:45.831Z,-3.76
2018-03-04T02:04:46.431Z,-3.72
2018-03-04T02:04:47.034Z,-3.83
2018-03-04T02:04:47.630Z,-3.76
2018-03-04T02:04:48.229Z,-3.81
2018-03-04T02:06:02.279Z,-3.80
2018-03-04T02:06:02.851Z,-3.80
2018-03-04T02:06:03.451Z,-3.80
2018-03-04T02:06:04.048Z,-3.80
2018-03-04T02:06:04.649Z,-3.70
2018-03-04T02:06:05.248Z,-3.83
2018-03-04T02:06:05.849Z,-3.80
2018-03-04T02:06:59.906Z,-3.81
2018-03-04T02:07:00.504Z,-3.80
2018-03-04T02:07:01.102Z,-3.83
2018-03-04T02:07:01.702Z,-3.81
2018-03-04T02:07:02.301Z,-3.83
2018-03-04T02:07:02.902Z,-3.72
2018-03-04T02:07:03.501Z,-3.76
2018-03-04T02:07:57.574Z,-3.70
2018-03-04T02:07:58.154Z,-3.78
2018-03-04T02:07:58.754Z,-3.72
2018-03-04T02:07:59.355Z,-3.81
2018-03-04T02:07:59.955Z,-3.72
2018-03-04T02:08:00.554Z,-3.83
2018-03-04T02:08:01.153Z,-3.72
2018-03-04T02:08:55.209Z,-3.78
2018-03-04T02:08:55.805Z,-3.80
2018-03-04T02:08:56.405Z,-3.78
2018-03-04T02:08:57.006Z,-3.81
2018-03-04T02:08:57.610Z,-3.81
2018-03-04T02:08:58.205Z,-3.84
2018-03-04T02:08:58.805Z,-3.78
2018-03-04T02:09:52.859Z,-3.81
2018-03-04T02:09:53.458Z,-3.80
2018-03-04T02:09:54.059Z,-3.76
2018-03-04T02:09:54.657Z,-3.76
2018-03-04T02:09:55.258Z,-3.76
2018-03-04T02:09:55.857Z,-3.72
2018-03-04T02:09:56.458Z,-3.76
2018-03-04T02:10:50.545Z,-3.76
2018-03-04T02:10:51.110Z,-3.81
2018-03-04T02:10:51.709Z,-3.75
2018-03-04T02:10:52.308Z,-3.80
2018-03-04T02:10:52.908Z,-3.78
2018-03-04T02:10:53.512Z,-3.80
2018-03-04T02:10:54.107Z,-3.80
2018-03-04T02:11:48.164Z,-3.78
2018-03-04T02:11:48.762Z,-3.83
2018-03-04T02:11:49.365Z,-3.76
2018-03-04T02:11:49.965Z,-3.81
2018-03-04T02:11:50.561Z,-3.75
2018-03-04T02:11:51.159Z,-3.84
2018-03-04T02:11:51.760Z,-3.83
2018-03-04T02:12:45.814Z,-3.72
2018-03-04T02:12:46.412Z,-3.76
2018-03-04T02:12:47.012Z,-3.71
2018-03-04T02:12:47.612Z,-3.78
2018-03-04T02:12:48.212Z,-3.81
2018-03-04T02:12:48.817Z,-3.81
2018-03-04T02:12:49.445Z,-3.76
2018-03-04T02:13:43.466Z,-3.81
2018-03-04T02:13:44.064Z,-3.68
2018-03-04T02:13:44.664Z,-3.70
2018-03-04T02:13:45.263Z,-3.81
2018-03-04T02:13:45.862Z,-3.76
2018-03-04T02:13:46.463Z,-3.81
2018-03-04T02:13:47.062Z,-3.78
2018-03-04T02:14:41.118Z,-3.81
2018-03-04T02:14:41.718Z,-3.81
2018-03-04T02:14:42.316Z,-3.80
2018-03-04T02:14:42.915Z,-3.80
2018-03-04T02:14:43.516Z,-3.81
2018-03-04T02:14:44.116Z,-3.80
2018-03-04T02:14:44.721Z,-3.72
2018-03-04T02:15:38.772Z,-3.80
2018-03-04T02:15:39.371Z,-3.76
2018-03-04T02:15:39.967Z,-3.75
2018-03-04T02:15:40.572Z,-3.78
2018-03-04T02:15:41.168Z,-3.78
2018-03-04T02:15:41.765Z,-3.83
2018-03-04T02:15:42.365Z,-3.72
2018-03-04T02:16:36.448Z,-3.80
2018-03-04T02:16:37.017Z,-3.80
2018-03-04T02:16:37.625Z,-3.80
2018-03-04T02:16:38.220Z,-3.76
2018-03-04T02:16:38.821Z,-3.76
2018-03-04T02:16:39.418Z,-3.81
2018-03-04T02:16:40.019Z,-3.81
2018-03-04T02:17:34.074Z,-3.81
2018-03-04T02:17:34.671Z,-3.80
2018-03-04T02:17:35.271Z,-3.83
2018-03-04T02:17:35.891Z,-3.80
2018-03-04T02:17:36.470Z,-3.78
2018-03-04T02:17:37.069Z,-3.81
2018-03-04T02:17:37.673Z,-3.76
2018-03-04T02:18:31.729Z,-3.76
2018-03-04T02:18:32.330Z,-3.83
2018-03-04T02:18:32.925Z,-3.81
2018-03-04T02:18:33.525Z,-3.78
2018-03-04T02:18:34.125Z,-3.80
2018-03-04T02:18:34.726Z,-3.81
2018-03-04T02:18:35.327Z,-3.70
2018-03-04T02:19:29.378Z,-3.80
2018-03-04T02:19:29.973Z,-3.81
2018-03-04T02:19:30.575Z,-3.76
2018-03-04T02:19:31.173Z,-3.75
2018-03-04T02:19:31.775Z,-3.78
2018-03-04T02:19:32.372Z,-3.80
2018-03-04T02:19:32.974Z,-3.83
2018-03-04T02:20:27.030Z,-3.80
2018-03-04T02:20:27.629Z,-3.76
2018-03-04T02:20:28.225Z,-3.83
2018-03-04T02:20:28.827Z,-3.78
2018-03-04T02:20:29.427Z,-3.83
2018-03-04T02:20:30.025Z,-3.80
2018-03-04T02:20:30.625Z,-3.80
2018-03-04T02:21:24.716Z,-3.81
2018-03-04T02:21:25.277Z,-3.84
2018-03-04T02:21:25.876Z,-3.81
2018-03-04T02:21:26.476Z,-3.75
2018-03-04T02:21:27.076Z,-3.80
2018-03-04T02:21:27.677Z,-3.76
2018-03-04T02:21:28.276Z,-3.76
2018-03-04T02:22:22.333Z,-3.75
2018-03-04T02:22:22.929Z,-3.78
2018-03-04T02:22:23.529Z,-3.78
2018-03-04T02:22:24.127Z,-3.80
2018-03-04T02:22:24.729Z,-3.80
2018-03-04T02:22:25.337Z,-3.80
2018-03-04T02:22:25.928Z,-3.80
2018-03-04T02:23:19.984Z,-3.78
2018-03-04T02:23:20.581Z,-3.75
2018-03-04T02:23:21.181Z,-3.83
2018-03-04T02:23:21.784Z,-3.80
2018-03-04T02:23:22.380Z,-3.80
2018-03-04T02:23:22.980Z,-3.75
2018-03-04T02:23:23.580Z,-3.80
2018-03-04T02:24:17.635Z,-3.80
2018-03-04T02:24:18.234Z,-3.78
2018-03-04T02:24:18.834Z,-3.81
2018-03-04T02:24:19.432Z,-3.80
2018-03-04T02:24:20.032Z,-3.78
2018-03-04T02:24:20.630Z,-3.75
2018-03-04T02:24:21.230Z,-3.81
2018-03-04T02:25:15.288Z,-3.75
2018-03-04T02:25:15.887Z,-3.76
2018-03-04T02:25:16.483Z,-3.78
2018-03-04T02:25:17.083Z,-3.78
2018-03-04T02:25:17.684Z,-3.68
2018-03-04T02:25:18.284Z,-3.76
2018-03-04T02:25:18.885Z,-3.80
2018-03-04T02:26:12.939Z,-3.81
2018-03-04T02:26:13.536Z,-3.84
2018-03-04T02:26:14.134Z,-3.76
2018-03-04T02:26:14.735Z,-3.67
2018-03-04T02:26:15.336Z,-3.83
2018-03-04T02:26:15.939Z,-3.72
2018-03-04T02:26:16.534Z,-3.76
2018-03-04T02:27:10.623Z,-3.75
2018-03-04T02:27:11.187Z,-3.81
2018-03-04T02:27:11.788Z,-3.78
2018-03-04T02:27:12.387Z,-3.71
2018-03-04T02:27:12.987Z,-3.75
2018-03-04T02:27:13.586Z,-3.80
2018-03-04T02:27:14.185Z,-3.80
2018-03-04T02:28:08.243Z,-3.75
2018-03-04T02:28:08.839Z,-3.72
2018-03-04T02:28:09.441Z,-3.80
2018-03-04T02:28:10.044Z,-3.75
2018-03-04T02:28:10.638Z,-3.81
2018-03-04T02:28:11.237Z,-3.76
2018-03-04T02:28:11.839Z,-3.76
2018-03-04T02:29:05.894Z,-3.78
2018-03-04T02:29:06.489Z,-3.71
2018-03-04T02:29:07.091Z,-3.76
2018-03-04T02:29:07.690Z,-3.78
2018-03-04T02:29:08.292Z,-3.83
2018-03-04T02:29:08.890Z,-3.78
2018-03-04T02:29:09.489Z,-3.78
2018-03-04T02:30:03.561Z,-3.75
2018-03-04T02:30:04.198Z,-3.80
2018-03-04T02:30:04.752Z,-3.80
2018-03-04T02:30:05.356Z,-3.81
2018-03-04T02:30:05.971Z,-3.76
2018-03-04T02:30:06.559Z,-3.83
2018-03-04T02:30:07.144Z,-3.81
2018-03-04T02:31:01.198Z,-3.80
2018-03-04T02:31:01.793Z,-3.80
2018-03-04T02:31:02.393Z,-3.78
2018-03-04T02:31:02.994Z,-3.80
2018-03-04T02:31:03.594Z,-3.78
2018-03-04T02:31:04.192Z,-3.76
2018-03-04T02:31:04.793Z,-3.80
2018-03-04T02:31:58.850Z,-3.80
2018-03-04T02:31:59.483Z,-3.78
2018-03-04T02:32:00.045Z,-3.80
2018-03-04T02:32:00.646Z,-3.76
2018-03-04T02:32:01.249Z,-3.78
2018-03-04T02:32:01.845Z,-3.75
2018-03-04T02:32:02.448Z,-3.80
2018-03-04T02:32:56.527Z,-3.75
2018-03-04T02:32:57.098Z,-3.78
2018-03-04T02:32:57.697Z,-3.83
2018-03-04T02:32:58.295Z,-3.70
2018-03-04T02:32:58.896Z,-3.80
2018-03-04T02:32:59.496Z,-3.76
2018-03-04T02:33:00.097Z,-3.68
2018-03-04T02:33:54.152Z,-3.75
2018-03-04T02:33:54.756Z,-3.76
2018-03-04T02:33:55.350Z,-3.76
2018-03-04T02:33:55.948Z,-3.71
2018-03-04T02:33:56.551Z,-3.76
2018-03-04T02:33:57.150Z,-3.78
2018-03-04T02:33:57.748Z,-3.78
2018-03-04T02:34:51.805Z,-3.83
2018-03-04T02:34:52.407Z,-3.78
2018-03-04T02:34:53.000Z,-3.75
2018-03-04T02:34:53.600Z,-3.72
2018-03-04T02:34:54.202Z,-3.76
2018-03-04T02:34:54.799Z,-3.80
2018-03-04T02:34:55.399Z,-3.76
2018-03-04T02:35:49.454Z,-3.81
2018-03-04T02:35:50.052Z,-3.75
2018-03-04T02:35:50.653Z,-3.81
2018-03-04T02:35:51.254Z,-3.72
2018-03-04T02:35:51.854Z,-3.76
2018-03-04T02:35:52.461Z,-3.80
2018-03-04T02:35:53.053Z,-3.76
2018-03-04T02:36:48.031Z,-3.71
2018-03-04T02:36:48.634Z,-3.62
2018-03-04T02:36:49.226Z,-3.81
2018-03-04T02:36:49.826Z,-3.80
2018-03-04T02:36:50.428Z,-3.76
2018-03-04T02:36:51.026Z,-3.71
2018-03-04T02:37:45.612Z,-3.78
2018-03-04T02:37:46.175Z,-3.76
2018-03-04T02:37:46.775Z,-3.78
2018-03-04T02:37:47.377Z,-3.70
2018-03-04T02:37:47.974Z,-3.78
2018-03-04T02:37:48.574Z,-3.78
2018-03-04T02:37:49.177Z,-3.81
2018-03-04T02:38:43.230Z,-3.76
2018-03-04T02:38:43.826Z,-3.76
2018-03-04T02:38:44.425Z,-3.75
2018-03-04T02:38:45.026Z,-3.72
2018-03-04T02:38:45.626Z,-3.72
2018-03-04T02:38:46.226Z,-3.75
2018-03-04T02:38:46.827Z,-3.75
2018-03-04T02:39:40.370Z,-3.71
2018-03-04T02:39:40.967Z,-3.75
2018-03-04T02:57:32.430Z,-3.86
2018-03-04T02:57:32.997Z,-3.81
2018-03-04T02:57:33.602Z,-3.89
2018-03-04T02:57:34.196Z,-3.81
2018-03-04T02:57:34.796Z,-3.81
2018-03-04T02:57:35.399Z,-3.89
2018-03-04T02:57:36.004Z,-3.83
2018-03-04T02:57:36.593Z,-3.78
2018-03-04T02:58:30.564Z,-3.89
2018-03-04T02:58:31.163Z,-3.80
2018-03-04T02:58:31.761Z,-3.86
2018-03-04T02:58:32.362Z,-3.86
2018-03-04T02:58:32.960Z,-3.84
2018-03-04T02:58:33.559Z,-3.86
2018-03-04T02:58:34.157Z,-3.80
2018-03-04T02:59:28.834Z,-3.91
2018-03-04T02:59:29.426Z,-3.89
2018-03-04T02:59:30.029Z,-3.86
2018-03-04T02:59:30.627Z,-3.90
2018-03-04T02:59:31.225Z,-3.86
2018-03-04T02:59:31.826Z,-3.89
2018-03-04T02:59:32.426Z,-3.91
2018-03-04T03:00:26.409Z,-3.86
2018-03-04T03:00:26.978Z,-3.86
2018-03-04T03:00:27.578Z,-3.90
2018-03-04T03:00:28.178Z,-3.83
2018-03-04T03:00:28.786Z,-3.86
2018-03-04T03:00:29.378Z,-3.86
2018-03-04T03:00:29.986Z,-3.86
2018-03-04T03:01:44.004Z,-3.84
2018-03-04T03:01:44.596Z,-3.87
2018-03-04T03:01:45.199Z,-3.91
2018-03-04T03:01:45.797Z,-3.86
2018-03-04T03:01:46.396Z,-3.89
2018-03-04T03:01:46.996Z,-3.87
2018-03-04T03:01:47.597Z,-3.86
2018-03-04T03:02:41.551Z,-3.90
2018-03-04T03:02:42.147Z,-3.86
2018-03-04T03:02:42.748Z,-3.80
2018-03-04T03:02:43.347Z,-3.83
2018-03-04T03:02:43.947Z,-3.86
2018-03-04T03:02:44.546Z,-3.83
2018-03-04T03:02:45.144Z,-3.86
2018-03-04T03:03:59.173Z,-3.86
2018-03-04T03:03:59.768Z,-3.87
2018-03-04T03:04:00.369Z,-3.81
2018-03-04T03:04:00.963Z,-3.84
2018-03-04T03:04:01.615Z,-3.87
2018-03-04T03:04:02.166Z,-3.89
2018-03-04T03:04:02.769Z,-3.86
2018-03-04T03:04:56.829Z,-3.86
2018-03-04T03:04:57.422Z,-3.90
2018-03-04T03:04:58.023Z,-3.84
2018-03-04T03:04:58.619Z,-3.84
2018-03-04T03:04:59.221Z,-3.86
2018-03-04T03:04:59.821Z,-3.89
2018-03-04T03:05:00.419Z,-3.83
2018-03-04T03:05:54.510Z,-3.83
2018-03-04T03:05:55.075Z,-3.81
2018-03-04T03:05:55.672Z,-3.83
2018-03-04T03:05:56.272Z,-3.86
2018-03-04T03:05:56.875Z,-3.76
2018-03-04T03:05:57.526Z,-3.86
2018-03-04T03:05:58.072Z,-3.94
2018-03-04T03:06:52.125Z,-3.81
2018-03-04T03:06:52.724Z,-3.94
2018-03-04T03:06:53.324Z,-3.83
2018-03-04T03:06:53.924Z,-3.83
2018-03-04T03:06:54.522Z,-3.84
2018-03-04T03:06:55.123Z,-3.78
2018-03-04T03:06:55.723Z,-3.80
2018-03-04T03:07:49.779Z,-3.84
2018-03-04T03:07:50.376Z,-3.81
2018-03-04T03:07:50.974Z,-3.78
2018-03-04T03:07:51.575Z,-3.86
2018-03-04T03:07:52.175Z,-3.86
2018-03-04T03:07:52.780Z,-3.81
2018-03-04T03:07:53.374Z,-3.81
2018-03-04T03:08:47.430Z,-3.81
2018-03-04T03:08:48.028Z,-3.84
2018-03-04T03:08:48.627Z,-3.90
2018-03-04T03:08:49.227Z,-3.72
2018-03-04T03:08:49.827Z,-3.80
2018-03-04T03:08:50.426Z,-3.80
2018-03-04T03:08:51.025Z,-3.93
2018-03-04T03:09:45.082Z,-3.80
2018-03-04T03:09:45.678Z,-3.90
2018-03-04T03:09:46.278Z,-3.83
2018-03-04T03:09:46.879Z,-3.80
2018-03-04T03:09:47.478Z,-3.87
2018-03-04T03:09:48.077Z,-3.83
2018-03-04T03:09:48.676Z,-3.84
2018-03-04T03:10:42.733Z,-3.80
2018-03-04T03:10:43.332Z,-3.86
2018-03-04T03:10:43.931Z,-3.83
2018-03-04T03:10:44.530Z,-3.78
2018-03-04T03:10:45.130Z,-3.81
2018-03-04T03:10:45.730Z,-3.90
2018-03-04T03:10:46.330Z,-3.83
2018-03-04T03:11:40.430Z,-3.76
2018-03-04T03:11:40.987Z,-3.83
2018-03-04T03:11:41.582Z,-3.83
2018-03-04T03:11:42.182Z,-3.83
2018-03-04T03:11:42.781Z,-3.83
2018-03-04T03:11:43.382Z,-3.80
2018-03-04T03:11:43.983Z,-3.72
2018-03-04T03:12:38.036Z,-3.70
2018-03-04T03:12:38.634Z,-3.81
2018-03-04T03:12:39.233Z,-3.76
2018-03-04T03:12:39.832Z,-3.72
2018-03-04T03:12:40.433Z,-3.76
2018-03-04T03:12:41.033Z,-3.75
2018-03-04T03:12:41.632Z,-3.75
2018-03-04T03:13:35.689Z,-3.72
2018-03-04T03:13:36.286Z,-3.80
2018-03-04T03:13:36.885Z,-3.80
2018-03-04T03:13:37.486Z,-3.76
2018-03-04T03:13:38.085Z,-3.80
2018-03-04T03:13:38.684Z,-3.78
2018-03-04T03:13:39.288Z,-3.83
2018-03-04T03:14:33.342Z,-3.76
2018-03-04T03:14:33.937Z,-3.81
2018-03-04T03:14:34.537Z,-3.80
2018-03-04T03:14:35.137Z,-3.78
2018-03-04T03:14:35.736Z,-3.80
2018-03-04T03:14:36.336Z,-3.78
2018-03-04T03:14:36.936Z,-3.72
2018-03-04T03:15:30.993Z,-3.81
2018-03-04T03:15:31.590Z,-3.76
2018-03-04T03:15:32.189Z,-3.80
2018-03-04T03:15:32.788Z,-3.72
2018-03-04T03:15:33.387Z,-3.76
2018-03-04T03:15:33.989Z,-3.76
2018-03-04T03:15:34.588Z,-3.81
2018-03-04T03:16:28.643Z,-3.76
2018-03-04T03:16:29.241Z,-3.81
2018-03-04T03:16:29.841Z,-3.81
2018-03-04T03:16:30.440Z,-3.83
2018-03-04T03:16:31.041Z,-3.72
2018-03-04T03:16:31.640Z,-3.81
2018-03-04T03:16:32.240Z,-3.80
2018-03-04T03:17:26.323Z,-3.78
2018-03-04T03:17:26.891Z,-3.80
2018-03-04T03:17:27.508Z,-3.83
2018-03-04T03:17:28.092Z,-3.72
2018-03-04T03:17:28.691Z,-3.81
2018-03-04T03:17:29.291Z,-3.80
2018-03-04T03:17:29.890Z,-3.76
2018-03-04T03:18:23.948Z,-3.81
2018-03-04T03:18:24.544Z,-3.80
2018-03-04T03:18:25.144Z,-3.76
2018-03-04T03:18:25.742Z,-3.76
2018-03-04T03:18:26.346Z,-3.80
2018-03-04T03:18:26.943Z,-3.76
2018-03-04T03:18:27.543Z,-3.76
2018-03-04T03:19:21.600Z,-3.72
2018-03-04T03:19:22.196Z,-3.81
2018-03-04T03:19:22.797Z,-3.76
2018-03-04T03:19:23.396Z,-3.78
2018-03-04T03:19:23.995Z,-3.78
2018-03-04T03:19:24.596Z,-3.78
2018-03-04T03:19:25.249Z,-3.76
2018-03-04T03:20:19.251Z,-3.78
2018-03-04T03:20:19.847Z,-3.72
2018-03-04T03:20:20.447Z,-3.81
2018-03-04T03:20:21.047Z,-3.78
2018-03-04T03:20:21.647Z,-3.76
2018-03-04T03:20:22.247Z,-3.75
2018-03-04T03:20:22.845Z,-3.83
2018-03-04T03:21:16.902Z,-3.78
2018-03-04T03:21:17.499Z,-3.76
2018-03-04T03:21:18.098Z,-3.81
2018-03-04T03:21:18.699Z,-3.71
2018-03-04T03:21:19.299Z,-3.72
2018-03-04T03:21:19.898Z,-3.76
2018-03-04T03:21:20.499Z,-3.78
2018-03-04T03:22:14.588Z,-3.80
2018-03-04T03:22:15.150Z,-3.78
2018-03-04T03:22:15.752Z,-3.76
2018-03-04T03:22:16.350Z,-3.76
2018-03-04T03:22:16.951Z,-3.84
2018-03-04T03:22:17.550Z,-3.71
2018-03-04T03:22:18.149Z,-3.80
2018-03-04T03:23:12.205Z,-3.78
2018-03-04T03:23:12.804Z,-3.76
2018-03-04T03:23:13.410Z,-3.84
2018-03-04T03:23:14.007Z,-3.80
2018-03-04T03:23:14.602Z,-3.83
2018-03-04T03:23:15.205Z,-3.70
2018-03-04T03:23:15.802Z,-3.75
2018-03-04T03:24:09.859Z,-3.70
2018-03-04T03:24:10.456Z,-3.71
2018-03-04T03:24:11.053Z,-3.81
2018-03-04T03:24:11.653Z,-3.80
2018-03-04T03:24:12.255Z,-3.80
2018-03-04T03:24:12.853Z,-3.76
2018-03-04T03:24:13.452Z,-3.81
2018-03-04T03:25:07.507Z,-3.76
2018-03-04T03:25:08.105Z,-3.72
2018-03-04T03:25:08.715Z,-3.80
2018-03-04T03:25:09.304Z,-3.80
2018-03-04T03:25:09.905Z,-3.84
2018-03-04T03:25:10.504Z,-3.72
2018-03-04T03:25:11.106Z,-3.81
2018-03-04T03:26:05.159Z,-3.78
2018-03-04T03:26:05.757Z,-3.70
2018-03-04T03:26:06.359Z,-3.81
2018-03-04T03:26:06.956Z,-3.76
2018-03-04T03:26:07.556Z,-3.76
2018-03-04T03:26:08.158Z,-3.81
2018-03-04T03:26:08.757Z,-3.76
2018-03-04T03:27:02.812Z,-3.80
2018-03-04T03:27:03.409Z,-3.80
2018-03-04T03:27:04.009Z,-3.75
2018-03-04T03:27:04.608Z,-3.78
2018-03-04T03:27:05.208Z,-3.70
2018-03-04T03:27:05.810Z,-3.72
2018-03-04T03:27:06.407Z,-3.80
2018-03-04T03:28:00.497Z,-3.80
2018-03-04T03:28:01.060Z,-3.71
2018-03-04T03:28:01.661Z,-3.70
2018-03-04T03:28:02.260Z,-3.78
2018-03-04T03:28:02.860Z,-3.75
2018-03-04T03:28:03.459Z,-3.76
2018-03-04T03:28:04.058Z,-3.76
2018-03-04T03:28:58.116Z,-3.75
2018-03-04T03:28:58.711Z,-3.76
2018-03-04T03:28:59.311Z,-3.71
2018-03-04T03:28:59.913Z,-3.65
2018-03-04T03:29:00.513Z,-3.80
2018-03-04T03:29:01.111Z,-3.80
2018-03-04T03:29:01.713Z,-3.76
2018-03-04T03:29:55.767Z,-3.78
2018-03-04T03:29:56.364Z,-3.78
2018-03-04T03:29:56.964Z,-3.80
2018-03-04T03:29:57.562Z,-3.76
2018-03-04T03:29:58.162Z,-3.71
2018-03-04T03:29:58.763Z,-3.75
2018-03-04T03:29:59.364Z,-3.72
2018-03-04T03:30:53.424Z,-3.80
2018-03-04T03:30:54.069Z,-3.71
2018-03-04T03:30:54.676Z,-3.68
2018-03-04T03:30:55.279Z,-3.76
2018-03-04T03:30:55.826Z,-3.84
2018-03-04T03:30:56.434Z,-3.80
2018-03-04T03:30:57.054Z,-3.78
2018-03-04T03:31:51.071Z,-3.72
2018-03-04T03:31:51.667Z,-3.76
2018-03-04T03:31:52.266Z,-3.71
2018-03-04T03:31:52.866Z,-3.84
2018-03-04T03:31:53.466Z,-3.84
2018-03-04T03:31:54.066Z,-3.80
2018-03-04T03:31:54.666Z,-3.81
2018-03-04T03:32:48.722Z,-3.80
2018-03-04T03:32:49.318Z,-3.83
2018-03-04T03:32:49.918Z,-3.80
2018-03-04T03:32:50.520Z,-3.80
2018-03-04T03:32:51.127Z,-3.75
2018-03-04T03:32:51.716Z,-3.80
2018-03-04T03:32:52.317Z,-3.75
2018-03-04T03:33:46.407Z,-3.76
2018-03-04T03:33:46.969Z,-3.76
2018-03-04T03:33:47.571Z,-3.84
2018-03-04T03:33:48.170Z,-3.72
2018-03-04T03:33:48.770Z,-3.75
2018-03-04T03:33:49.373Z,-3.72
2018-03-04T03:33:49.970Z,-3.76
2018-03-04T03:34:44.026Z,-3.84
2018-03-04T03:34:44.622Z,-3.80
2018-03-04T03:34:45.221Z,-3.83
2018-03-04T03:34:45.820Z,-3.76
2018-03-04T03:34:46.421Z,-3.84
2018-03-04T03:34:47.022Z,-3.78
2018-03-04T03:34:47.620Z,-3.80
2018-03-04T03:35:41.676Z,-3.81
2018-03-04T03:35:42.273Z,-3.78
2018-03-04T03:35:42.872Z,-3.80
2018-03-04T03:35:43.472Z,-3.80
2018-03-04T03:35:44.073Z,-3.67
2018-03-04T03:35:44.672Z,-3.78
2018-03-04T03:35:45.272Z,-3.83
2018-03-04T03:36:39.330Z,-3.80
2018-03-04T03:36:39.925Z,-3.78
2018-03-04T03:36:40.525Z,-3.81
2018-03-04T03:36:41.126Z,-3.83
2018-03-04T03:36:41.724Z,-3.75
2018-03-04T03:36:42.324Z,-3.83
2018-03-04T03:36:42.924Z,-3.87
2018-03-04T03:37:36.982Z,-3.76
2018-03-04T03:37:37.577Z,-3.83
2018-03-04T03:37:38.178Z,-3.76
2018-03-04T03:37:38.776Z,-3.75
2018-03-04T03:37:39.376Z,-3.84
2018-03-04T03:37:39.976Z,-3.80
2018-03-04T03:37:40.574Z,-3.78
2018-03-04T03:38:34.633Z,-3.86
2018-03-04T03:38:35.229Z,-3.87
2018-03-04T03:38:35.838Z,-3.78
2018-03-04T03:38:36.431Z,-3.86
2018-03-04T03:38:37.027Z,-3.84
2018-03-04T03:38:37.628Z,-3.80
2018-03-04T03:38:38.227Z,-3.83
2018-03-04T03:39:32.310Z,-3.87
2018-03-04T03:39:32.880Z,-3.76
2018-03-04T03:39:33.482Z,-3.90
2018-03-04T03:39:34.079Z,-3.90
2018-03-04T03:39:34.679Z,-3.87
2018-03-04T03:39:35.279Z,-3.75
2018-03-04T03:39:35.880Z,-3.90
2018-03-04T03:40:29.933Z,-3.90
2018-03-04T03:40:30.530Z,-3.86
2018-03-04T03:40:31.133Z,-3.89
2018-03-04T03:40:31.730Z,-3.90
2018-03-04T03:40:32.331Z,-3.87
2018-03-04T03:40:32.930Z,-3.83
2018-03-04T03:40:33.529Z,-3.87
2018-03-04T03:41:27.587Z,-3.80
2018-03-04T03:41:28.187Z,-3.83
2018-03-04T03:41:28.785Z,-3.76
2018-03-04T03:41:29.383Z,-3.81
2018-03-04T03:41:29.982Z,-3.81
2018-03-04T03:41:30.583Z,-3.80
2018-03-04T03:41:31.183Z,-3.89
2018-03-04T03:42:25.236Z,-3.87
2018-03-04T03:42:25.836Z,-3.83
2018-03-04T03:42:26.439Z,-3.93
2018-03-04T03:42:27.035Z,-3.89
2018-03-04T03:42:27.635Z,-3.81
2018-03-04T03:42:28.234Z,-3.96
2018-03-04T03:42:28.835Z,-3.81
2018-03-04T03:43:22.900Z,-3.86
2018-03-04T03:43:23.487Z,-3.75
2018-03-04T03:43:24.086Z,-3.89
2018-03-04T03:43:24.689Z,-3.78
2018-03-04T03:43:25.289Z,-3.81
2018-03-04T03:43:25.886Z,-3.87
2018-03-04T03:43:26.485Z,-3.83
2018-03-04T03:44:20.575Z,-3.89
2018-03-04T03:44:21.142Z,-3.76
2018-03-04T03:44:21.737Z,-3.76
2018-03-04T03:44:22.339Z,-3.83
2018-03-04T03:44:22.937Z,-3.83
2018-03-04T03:44:23.537Z,-3.87
2018-03-04T03:44:24.136Z,-3.90
2018-03-04T03:45:18.193Z,-3.86
2018-03-04T03:45:18.789Z,-3.86
2018-03-04T03:45:19.389Z,-3.87
2018-03-04T03:45:19.990Z,-3.80
2018-03-04T03:45:20.590Z,-3.86
2018-03-04T03:45:21.190Z,-3.76
2018-03-04T03:45:21.795Z,-3.80
2018-03-04T03:46:15.843Z,-3.80
2018-03-04T03:46:16.442Z,-3.80
2018-03-04T03:46:17.041Z,-3.87
2018-03-04T03:46:17.641Z,-3.80
2018-03-04T03:46:18.240Z,-3.90
2018-03-04T03:46:18.841Z,-3.90
2018-03-04T03:46:19.440Z,-3.78
2018-03-04T03:47:13.496Z,-3.86
2018-03-04T03:47:14.094Z,-3.80
2018-03-04T03:47:14.693Z,-3.90
2018-03-04T03:47:15.293Z,-3.93
2018-03-04T03:47:15.891Z,-3.75
2018-03-04T03:47:16.492Z,-3.81